sensor_id;sensor_type;location;lat;lon;timestamp;P1;durP1;ratioP1;P2;durP2;ratioP2
43124;SDS011;49182;50.788;7.318;2023-05-10T00:01:09;3.20;;;1.38;;
43124;SDS011;49182;50.788;7.318;2023-05-10T00:03:36;7.68;;;1.77;;
43124;SDS011;49182;50.788;7.318;2023-05-10T00:06:03;4.70;;;1.73;;
43124;SDS011;49182;50.788;7.318;2023-05-10T00:08:29;3.30;;;1.65;;
43124;SDS011;49182;50.788;7.318;2023-05-10T00:10:56;3.38;;;1.50;;
43124;SDS011;49182;50.788;7.318;2023-05-10T00:13:23;3.17;;;1.60;;
43124;SDS011;49182;50.788;7.318;2023-05-10T00:15:49;3.70;;;1.50;;
43124;SDS011;49182;50.788;7.318;2023-05-10T00:18:17;3.25;;;1.70;;
43124;SDS011;49182;50.788;7.318;2023-05-10T00:20:44;3.90;;;1.70;;
43124;SDS011;49182;50.788;7.318;2023-05-10T00:23:10;3.35;;;1.55;;
43124;SDS011;49182;50.788;7.318;2023-05-10T00:25:37;4.45;;;1.92;;
43124;SDS011;49182;50.788;7.318;2023-05-10T00:28:04;4.65;;;2.25;;
43124;SDS011;49182;50.788;7.318;2023-05-10T00:30:30;4.00;;;1.83;;
43124;SDS011;49182;50.788;7.318;2023-05-10T00:32:57;4.13;;;1.80;;
43124;SDS011;49182;50.788;7.318;2023-05-10T00:35:26;4.35;;;2.15;;
43124;SDS011;49182;50.788;7.318;2023-05-10T00:37:53;3.83;;;1.75;;
43124;SDS011;49182;50.788;7.318;2023-05-10T00:40:19;4.57;;;2.10;;
43124;SDS011;49182;50.788;7.318;2023-05-10T00:42:52;4.03;;;2.20;;
43124;SDS011;49182;50.788;7.318;2023-05-10T00:45:20;5.60;;;2.10;;
43124;SDS011;49182;50.788;7.318;2023-05-10T00:47:46;3.72;;;2.08;;
43124;SDS011;49182;50.788;7.318;2023-05-10T00:50:13;4.32;;;2.00;;
43124;SDS011;49182;50.788;7.318;2023-05-10T00:52:42;4.20;;;2.10;;
43124;SDS011;49182;50.788;7.318;2023-05-10T00:55:09;7.47;;;2.10;;
43124;SDS011;49182;50.788;7.318;2023-05-10T00:57:37;3.47;;;1.75;;
43124;SDS011;49182;50.788;7.318;2023-05-10T01:00:05;5.05;;;1.83;;
43124;SDS011;49182;50.788;7.318;2023-05-10T01:02:33;3.80;;;1.80;;
43124;SDS011;49182;50.788;7.318;2023-05-10T01:05:00;6.32;;;2.15;;
43124;SDS011;49182;50.788;7.318;2023-05-10T01:07:28;5.22;;;1.90;;
43124;SDS011;49182;50.788;7.318;2023-05-10T01:09:56;4.65;;;1.90;;
43124;SDS011;49182;50.788;7.318;2023-05-10T01:12:23;3.90;;;2.15;;
43124;SDS011;49182;50.788;7.318;2023-05-10T01:14:51;4.13;;;1.70;;
43124;SDS011;49182;50.788;7.318;2023-05-10T01:17:17;5.53;;;1.70;;
43124;SDS011;49182;50.788;7.318;2023-05-10T01:19:44;5.70;;;2.03;;
43124;SDS011;49182;50.788;7.318;2023-05-10T01:22:15;5.43;;;2.10;;
43124;SDS011;49182;50.788;7.318;2023-05-10T01:25:13;5.10;;;2.40;;
43124;SDS011;49182;50.788;7.318;2023-05-10T01:31:27;5.40;;;2.22;;
43124;SDS011;49182;50.788;7.318;2023-05-10T01:34:02;5.25;;;2.72;;
43124;SDS011;49182;50.788;7.318;2023-05-10T01:36:35;4.70;;;2.28;;
43124;SDS011;49182;50.788;7.318;2023-05-10T01:39:11;4.45;;;2.17;;
43124;SDS011;49182;50.788;7.318;2023-05-10T01:41:46;4.90;;;2.55;;
43124;SDS011;49182;50.788;7.318;2023-05-10T01:44:16;5.32;;;2.58;;
43124;SDS011;49182;50.788;7.318;2023-05-10T01:46:48;4.50;;;2.40;;
43124;SDS011;49182;50.788;7.318;2023-05-10T01:49:25;4.53;;;2.40;;
43124;SDS011;49182;50.788;7.318;2023-05-10T01:52:00;4.57;;;2.40;;
43124;SDS011;49182;50.788;7.318;2023-05-10T01:54:33;6.20;;;2.30;;
43124;SDS011;49182;50.788;7.318;2023-05-10T01:57:02;6.05;;;2.13;;
43124;SDS011;49182;50.788;7.318;2023-05-10T01:59:33;4.63;;;2.30;;
43124;SDS011;49182;50.788;7.318;2023-05-10T02:02:01;4.40;;;2.30;;
43124;SDS011;49182;50.788;7.318;2023-05-10T02:04:32;4.90;;;2.55;;
43124;SDS011;49182;50.788;7.318;2023-05-10T02:07:01;5.28;;;2.70;;
43124;SDS011;49182;50.788;7.318;2023-05-10T02:09:28;4.88;;;2.50;;
43124;SDS011;49182;50.788;7.318;2023-05-10T02:11:58;3.95;;;1.75;;
43124;SDS011;49182;50.788;7.318;2023-05-10T02:14:27;3.33;;;1.42;;
43124;SDS011;49182;50.788;7.318;2023-05-10T02:16:56;3.22;;;1.40;;
43124;SDS011;49182;50.788;7.318;2023-05-10T02:19:26;3.88;;;1.60;;
43124;SDS011;49182;50.788;7.318;2023-05-10T02:21:57;3.35;;;1.67;;
43124;SDS011;49182;50.788;7.318;2023-05-10T02:24:26;2.83;;;1.33;;
43124;SDS011;49182;50.788;7.318;2023-05-10T02:26:53;4.40;;;1.17;;
43124;SDS011;49182;50.788;7.318;2023-05-10T02:29:21;2.67;;;1.20;;
43124;SDS011;49182;50.788;7.318;2023-05-10T02:31:49;3.22;;;1.25;;
43124;SDS011;49182;50.788;7.318;2023-05-10T02:34:19;4.32;;;1.50;;
43124;SDS011;49182;50.788;7.318;2023-05-10T02:36:47;4.05;;;1.17;;
43124;SDS011;49182;50.788;7.318;2023-05-10T02:39:18;2.38;;;1.00;;
43124;SDS011;49182;50.788;7.318;2023-05-10T02:41:46;3.53;;;1.23;;
43124;SDS011;49182;50.788;7.318;2023-05-10T02:44:15;5.78;;;1.10;;
43124;SDS011;49182;50.788;7.318;2023-05-10T02:46:45;2.35;;;1.10;;
43124;SDS011;49182;50.788;7.318;2023-05-10T02:49:13;1.92;;;0.93;;
43124;SDS011;49182;50.788;7.318;2023-05-10T02:51:40;2.67;;;1.08;;
43124;SDS011;49182;50.788;7.318;2023-05-10T02:54:12;3.40;;;1.70;;
43124;SDS011;49182;50.788;7.318;2023-05-10T02:56:47;2.80;;;1.20;;
43124;SDS011;49182;50.788;7.318;2023-05-10T02:59:16;2.65;;;1.00;;
43124;SDS011;49182;50.788;7.318;2023-05-10T03:01:43;5.22;;;1.40;;
43124;SDS011;49182;50.788;7.318;2023-05-10T03:04:10;2.47;;;1.00;;
43124;SDS011;49182;50.788;7.318;2023-05-10T03:06:36;2.10;;;1.02;;
43124;SDS011;49182;50.788;7.318;2023-05-10T03:09:03;3.47;;;1.50;;
43124;SDS011;49182;50.788;7.318;2023-05-10T03:11:37;3.50;;;1.48;;
43124;SDS011;49182;50.788;7.318;2023-05-10T03:14:21;4.75;;;1.17;;
43124;SDS011;49182;50.788;7.318;2023-05-10T03:16:56;2.97;;;1.23;;
43124;SDS011;49182;50.788;7.318;2023-05-10T03:19:31;2.75;;;1.35;;
43124;SDS011;49182;50.788;7.318;2023-05-10T03:22:03;2.92;;;1.63;;
43124;SDS011;49182;50.788;7.318;2023-05-10T03:24:35;4.22;;;1.50;;
43124;SDS011;49182;50.788;7.318;2023-05-10T03:27:06;3.47;;;1.70;;
43124;SDS011;49182;50.788;7.318;2023-05-10T03:29:35;4.45;;;1.80;;
43124;SDS011;49182;50.788;7.318;2023-05-10T03:32:03;4.05;;;1.92;;
43124;SDS011;49182;50.788;7.318;2023-05-10T03:34:31;3.53;;;1.70;;
43124;SDS011;49182;50.788;7.318;2023-05-10T03:36:57;5.47;;;2.45;;
43124;SDS011;49182;50.788;7.318;2023-05-10T03:39:27;4.03;;;2.05;;
43124;SDS011;49182;50.788;7.318;2023-05-10T03:41:56;9.88;;;2.58;;
43124;SDS011;49182;50.788;7.318;2023-05-10T03:44:23;4.68;;;2.55;;
43124;SDS011;49182;50.788;7.318;2023-05-10T03:46:51;7.80;;;2.70;;
43124;SDS011;49182;50.788;7.318;2023-05-10T03:49:18;4.95;;;2.53;;
43124;SDS011;49182;50.788;7.318;2023-05-10T03:51:45;5.20;;;2.30;;
43124;SDS011;49182;50.788;7.318;2023-05-10T03:54:11;4.40;;;1.70;;
43124;SDS011;49182;50.788;7.318;2023-05-10T03:56:38;3.30;;;1.45;;
43124;SDS011;49182;50.788;7.318;2023-05-10T03:59:05;3.42;;;1.58;;
43124;SDS011;49182;50.788;7.318;2023-05-10T04:01:31;4.30;;;1.10;;
43124;SDS011;49182;50.788;7.318;2023-05-10T04:03:59;2.58;;;0.80;;
43124;SDS011;49182;50.788;7.318;2023-05-10T04:06:26;2.47;;;0.88;;
43124;SDS011;49182;50.788;7.318;2023-05-10T04:08:53;2.47;;;0.93;;
43124;SDS011;49182;50.788;7.318;2023-05-10T04:11:20;1.77;;;0.77;;
43124;SDS011;49182;50.788;7.318;2023-05-10T04:13:47;3.40;;;1.00;;
43124;SDS011;49182;50.788;7.318;2023-05-10T04:16:13;2.20;;;0.73;;
43124;SDS011;49182;50.788;7.318;2023-05-10T04:18:40;3.25;;;1.17;;
43124;SDS011;49182;50.788;7.318;2023-05-10T04:21:12;1.65;;;0.70;;
43124;SDS011;49182;50.788;7.318;2023-05-10T04:23:38;2.28;;;0.90;;
43124;SDS011;49182;50.788;7.318;2023-05-10T04:26:05;4.25;;;1.40;;
43124;SDS011;49182;50.788;7.318;2023-05-10T04:28:33;3.13;;;1.50;;
43124;SDS011;49182;50.788;7.318;2023-05-10T04:31:00;5.03;;;1.60;;
43124;SDS011;49182;50.788;7.318;2023-05-10T04:33:27;4.15;;;1.60;;
43124;SDS011;49182;50.788;7.318;2023-05-10T04:35:54;6.00;;;2.35;;
43124;SDS011;49182;50.788;7.318;2023-05-10T04:38:26;6.70;;;2.78;;
43124;SDS011;49182;50.788;7.318;2023-05-10T04:40:52;5.03;;;2.40;;
43124;SDS011;49182;50.788;7.318;2023-05-10T04:43:19;6.95;;;3.50;;
43124;SDS011;49182;50.788;7.318;2023-05-10T04:45:46;7.35;;;4.28;;
43124;SDS011;49182;50.788;7.318;2023-05-10T04:48:13;7.22;;;3.85;;
43124;SDS011;49182;50.788;7.318;2023-05-10T04:50:39;7.95;;;3.90;;
43124;SDS011;49182;50.788;7.318;2023-05-10T04:53:06;10.60;;;4.75;;
43124;SDS011;49182;50.788;7.318;2023-05-10T04:55:34;8.20;;;5.05;;
43124;SDS011;49182;50.788;7.318;2023-05-10T04:58:02;9.57;;;4.93;;
43124;SDS011;49182;50.788;7.318;2023-05-10T05:00:28;8.52;;;4.45;;
43124;SDS011;49182;50.788;7.318;2023-05-10T05:02:55;10.20;;;4.75;;
43124;SDS011;49182;50.788;7.318;2023-05-10T05:05:21;7.57;;;4.65;;
43124;SDS011;49182;50.788;7.318;2023-05-10T05:07:48;9.07;;;4.28;;
43124;SDS011;49182;50.788;7.318;2023-05-10T05:10:14;9.07;;;4.70;;
43124;SDS011;49182;50.788;7.318;2023-05-10T05:12:43;11.27;;;4.80;;
43124;SDS011;49182;50.788;7.318;2023-05-10T05:15:10;7.47;;;3.70;;
43124;SDS011;49182;50.788;7.318;2023-05-10T05:17:37;6.97;;;4.07;;
43124;SDS011;49182;50.788;7.318;2023-05-10T05:20:04;10.25;;;4.57;;
43124;SDS011;49182;50.788;7.318;2023-05-10T05:22:31;9.32;;;4.97;;
43124;SDS011;49182;50.788;7.318;2023-05-10T05:24:58;10.68;;;5.43;;
43124;SDS011;49182;50.788;7.318;2023-05-10T05:27:25;10.13;;;6.13;;
43124;SDS011;49182;50.788;7.318;2023-05-10T05:29:53;11.73;;;5.70;;
43124;SDS011;49182;50.788;7.318;2023-05-10T05:32:20;14.63;;;6.43;;
43124;SDS011;49182;50.788;7.318;2023-05-10T05:34:46;13.07;;;6.40;;
43124;SDS011;49182;50.788;7.318;2023-05-10T05:37:13;11.65;;;6.18;;
43124;SDS011;49182;50.788;7.318;2023-05-10T05:39:40;15.43;;;7.30;;
43124;SDS011;49182;50.788;7.318;2023-05-10T05:42:07;17.85;;;7.28;;
43124;SDS011;49182;50.788;7.318;2023-05-10T05:44:33;11.50;;;6.07;;
43124;SDS011;49182;50.788;7.318;2023-05-10T05:47:01;14.82;;;6.90;;
43124;SDS011;49182;50.788;7.318;2023-05-10T05:49:28;12.15;;;7.07;;
43124;SDS011;49182;50.788;7.318;2023-05-10T05:51:58;13.27;;;6.47;;
43124;SDS011;49182;50.788;7.318;2023-05-10T05:54:25;12.02;;;6.22;;
43124;SDS011;49182;50.788;7.318;2023-05-10T05:56:53;14.27;;;6.80;;
43124;SDS011;49182;50.788;7.318;2023-05-10T05:59:20;16.73;;;7.22;;
43124;SDS011;49182;50.788;7.318;2023-05-10T06:01:46;18.52;;;7.40;;
43124;SDS011;49182;50.788;7.318;2023-05-10T06:04:14;16.60;;;8.23;;
43124;SDS011;49182;50.788;7.318;2023-05-10T06:06:41;16.35;;;8.38;;
43124;SDS011;49182;50.788;7.318;2023-05-10T06:09:08;12.15;;;7.40;;
43124;SDS011;49182;50.788;7.318;2023-05-10T06:11:35;17.92;;;8.65;;
43124;SDS011;49182;50.788;7.318;2023-05-10T06:14:02;13.98;;;8.70;;
43124;SDS011;49182;50.788;7.318;2023-05-10T06:16:29;15.15;;;8.32;;
43124;SDS011;49182;50.788;7.318;2023-05-10T06:18:56;18.35;;;9.18;;
43124;SDS011;49182;50.788;7.318;2023-05-10T06:21:24;15.25;;;8.77;;
43124;SDS011;49182;50.788;7.318;2023-05-10T06:23:50;14.93;;;8.70;;
43124;SDS011;49182;50.788;7.318;2023-05-10T06:26:17;16.65;;;9.02;;
43124;SDS011;49182;50.788;7.318;2023-05-10T06:28:43;18.23;;;8.32;;
43124;SDS011;49182;50.788;7.318;2023-05-10T06:31:10;15.75;;;8.75;;
43124;SDS011;49182;50.788;7.318;2023-05-10T06:33:37;16.00;;;9.05;;
43124;SDS011;49182;50.788;7.318;2023-05-10T06:36:03;15.82;;;8.52;;
43124;SDS011;49182;50.788;7.318;2023-05-10T06:38:32;15.50;;;8.60;;
43124;SDS011;49182;50.788;7.318;2023-05-10T06:40:58;14.57;;;8.27;;
43124;SDS011;49182;50.788;7.318;2023-05-10T06:43:25;15.38;;;8.45;;
43124;SDS011;49182;50.788;7.318;2023-05-10T06:45:51;13.38;;;8.30;;
43124;SDS011;49182;50.788;7.318;2023-05-10T06:48:18;15.73;;;8.50;;
43124;SDS011;49182;50.788;7.318;2023-05-10T06:50:45;12.65;;;7.70;;
43124;SDS011;49182;50.788;7.318;2023-05-10T06:53:11;14.07;;;8.70;;
43124;SDS011;49182;50.788;7.318;2023-05-10T06:55:39;16.15;;;8.10;;
43124;SDS011;49182;50.788;7.318;2023-05-10T06:58:06;11.90;;;7.55;;
43124;SDS011;49182;50.788;7.318;2023-05-10T07:00:32;15.35;;;8.10;;
43124;SDS011;49182;50.788;7.318;2023-05-10T07:02:59;14.95;;;8.00;;
43124;SDS011;49182;50.788;7.318;2023-05-10T07:05:26;17.92;;;8.70;;
43124;SDS011;49182;50.788;7.318;2023-05-10T07:07:52;13.07;;;7.65;;
43124;SDS011;49182;50.788;7.318;2023-05-10T07:10:19;14.60;;;7.80;;
43124;SDS011;49182;50.788;7.318;2023-05-10T07:12:47;13.15;;;7.63;;
43124;SDS011;49182;50.788;7.318;2023-05-10T07:15:14;12.50;;;7.28;;
43124;SDS011;49182;50.788;7.318;2023-05-10T07:17:41;14.00;;;8.00;;
43124;SDS011;49182;50.788;7.318;2023-05-10T07:20:11;18.27;;;9.00;;
43124;SDS011;49182;50.788;7.318;2023-05-10T07:22:38;13.13;;;6.65;;
43124;SDS011;49182;50.788;7.318;2023-05-10T07:25:05;12.13;;;6.18;;
43124;SDS011;49182;50.788;7.318;2023-05-10T07:27:32;10.27;;;5.40;;
43124;SDS011;49182;50.788;7.318;2023-05-10T07:30:00;9.60;;;5.20;;
43124;SDS011;49182;50.788;7.318;2023-05-10T07:32:27;12.77;;;5.45;;
43124;SDS011;49182;50.788;7.318;2023-05-10T07:34:53;9.25;;;4.30;;
43124;SDS011;49182;50.788;7.318;2023-05-10T07:37:20;10.43;;;5.13;;
43124;SDS011;49182;50.788;7.318;2023-05-10T07:39:46;10.10;;;5.07;;
43124;SDS011;49182;50.788;7.318;2023-05-10T07:42:13;9.35;;;4.43;;
43124;SDS011;49182;50.788;7.318;2023-05-10T07:44:39;7.68;;;3.78;;
43124;SDS011;49182;50.788;7.318;2023-05-10T07:47:07;7.55;;;3.70;;
43124;SDS011;49182;50.788;7.318;2023-05-10T07:49:34;9.02;;;3.85;;
43124;SDS011;49182;50.788;7.318;2023-05-10T07:52:01;9.70;;;3.70;;
43124;SDS011;49182;50.788;7.318;2023-05-10T07:54:29;8.25;;;3.88;;
43124;SDS011;49182;50.788;7.318;2023-05-10T07:56:55;8.77;;;3.90;;
43124;SDS011;49182;50.788;7.318;2023-05-10T07:59:22;9.73;;;4.20;;
43124;SDS011;49182;50.788;7.318;2023-05-10T08:01:48;7.80;;;3.80;;
43124;SDS011;49182;50.788;7.318;2023-05-10T08:04:16;9.13;;;3.40;;
43124;SDS011;49182;50.788;7.318;2023-05-10T08:06:43;8.35;;;3.58;;
43124;SDS011;49182;50.788;7.318;2023-05-10T08:09:09;6.35;;;3.42;;
43124;SDS011;49182;50.788;7.318;2023-05-10T08:11:36;9.23;;;3.83;;
43124;SDS011;49182;50.788;7.318;2023-05-10T08:14:02;8.40;;;3.35;;
43124;SDS011;49182;50.788;7.318;2023-05-10T08:16:29;9.48;;;3.53;;
43124;SDS011;49182;50.788;7.318;2023-05-10T08:18:56;7.72;;;3.70;;
43124;SDS011;49182;50.788;7.318;2023-05-10T08:21:24;9.20;;;3.83;;
43124;SDS011;49182;50.788;7.318;2023-05-10T08:23:50;8.18;;;3.47;;
43124;SDS011;49182;50.788;7.318;2023-05-10T08:26:17;6.55;;;3.38;;
43124;SDS011;49182;50.788;7.318;2023-05-10T08:28:43;6.75;;;3.15;;
43124;SDS011;49182;50.788;7.318;2023-05-10T08:31:10;6.55;;;2.80;;
43124;SDS011;49182;50.788;7.318;2023-05-10T08:33:37;5.68;;;2.47;;
43124;SDS011;49182;50.788;7.318;2023-05-10T08:36:03;6.75;;;2.85;;
43124;SDS011;49182;50.788;7.318;2023-05-10T08:38:32;6.13;;;2.75;;
43124;SDS011;49182;50.788;7.318;2023-05-10T08:40:58;6.25;;;3.03;;
43124;SDS011;49182;50.788;7.318;2023-05-10T08:43:27;9.13;;;3.75;;
43124;SDS011;49182;50.788;7.318;2023-05-10T08:45:55;7.18;;;3.35;;
43124;SDS011;49182;50.788;7.318;2023-05-10T08:48:22;5.25;;;2.40;;
43124;SDS011;49182;50.788;7.318;2023-05-10T08:50:51;5.60;;;2.33;;
43124;SDS011;49182;50.788;7.318;2023-05-10T08:53:19;3.92;;;2.15;;
43124;SDS011;49182;50.788;7.318;2023-05-10T08:55:48;5.28;;;2.17;;
43124;SDS011;49182;50.788;7.318;2023-05-10T08:58:15;5.72;;;2.58;;
43124;SDS011;49182;50.788;7.318;2023-05-10T09:00:42;4.43;;;2.03;;
43124;SDS011;49182;50.788;7.318;2023-05-10T09:03:09;4.80;;;2.25;;
43124;SDS011;49182;50.788;7.318;2023-05-10T09:05:36;5.18;;;2.45;;
43124;SDS011;49182;50.788;7.318;2023-05-10T09:08:03;4.63;;;2.25;;
43124;SDS011;49182;50.788;7.318;2023-05-10T09:10:30;4.60;;;2.10;;
43124;SDS011;49182;50.788;7.318;2023-05-10T09:12:58;7.43;;;4.10;;
43124;SDS011;49182;50.788;7.318;2023-05-10T09:15:25;6.47;;;3.25;;
43124;SDS011;49182;50.788;7.318;2023-05-10T09:17:52;5.43;;;2.60;;
43124;SDS011;49182;50.788;7.318;2023-05-10T09:20:19;7.20;;;3.00;;
43124;SDS011;49182;50.788;7.318;2023-05-10T09:22:45;5.55;;;2.00;;
43124;SDS011;49182;50.788;7.318;2023-05-10T09:25:12;4.78;;;2.10;;
43124;SDS011;49182;50.788;7.318;2023-05-10T09:27:41;4.15;;;2.17;;
43124;SDS011;49182;50.788;7.318;2023-05-10T09:30:14;5.90;;;2.17;;
43124;SDS011;49182;50.788;7.318;2023-05-10T09:32:43;4.85;;;1.90;;
43124;SDS011;49182;50.788;7.318;2023-05-10T09:35:11;9.07;;;2.15;;
43124;SDS011;49182;50.788;7.318;2023-05-10T09:37:39;4.72;;;2.30;;
43124;SDS011;49182;50.788;7.318;2023-05-10T09:40:07;5.07;;;2.30;;
43124;SDS011;49182;50.788;7.318;2023-05-10T09:42:37;6.63;;;2.50;;
43124;SDS011;49182;50.788;7.318;2023-05-10T09:45:04;5.57;;;2.55;;
43124;SDS011;49182;50.788;7.318;2023-05-10T09:47:34;5.60;;;2.65;;
43124;SDS011;49182;50.788;7.318;2023-05-10T09:50:02;4.75;;;2.35;;
43124;SDS011;49182;50.788;7.318;2023-05-10T09:52:29;5.93;;;2.10;;
43124;SDS011;49182;50.788;7.318;2023-05-10T09:54:56;6.65;;;2.30;;
43124;SDS011;49182;50.788;7.318;2023-05-10T09:57:23;3.53;;;1.52;;
43124;SDS011;49182;50.788;7.318;2023-05-10T09:59:50;4.57;;;1.70;;
43124;SDS011;49182;50.788;7.318;2023-05-10T10:02:17;3.50;;;1.30;;
43124;SDS011;49182;50.788;7.318;2023-05-10T10:04:45;2.38;;;1.00;;
43124;SDS011;49182;50.788;7.318;2023-05-10T10:07:17;2.13;;;0.90;;
43124;SDS011;49182;50.788;7.318;2023-05-10T10:09:49;1.85;;;0.90;;
43124;SDS011;49182;50.788;7.318;2023-05-10T10:12:16;2.13;;;1.10;;
43124;SDS011;49182;50.788;7.318;2023-05-10T10:14:43;2.13;;;0.90;;
43124;SDS011;49182;50.788;7.318;2023-05-10T10:17:09;2.55;;;1.10;;
43124;SDS011;49182;50.788;7.318;2023-05-10T10:19:36;3.45;;;1.10;;
43124;SDS011;49182;50.788;7.318;2023-05-10T10:22:05;4.22;;;1.70;;
43124;SDS011;49182;50.788;7.318;2023-05-10T10:24:32;2.72;;;1.30;;
43124;SDS011;49182;50.788;7.318;2023-05-10T10:26:59;3.00;;;1.17;;
43124;SDS011;49182;50.788;7.318;2023-05-10T10:29:35;7.15;;;1.42;;
43124;SDS011;49182;50.788;7.318;2023-05-10T10:32:07;3.03;;;1.20;;
43124;SDS011;49182;50.788;7.318;2023-05-10T10:34:43;2.45;;;1.23;;
43124;SDS011;49182;50.788;7.318;2023-05-10T10:37:11;3.97;;;1.33;;
43124;SDS011;49182;50.788;7.318;2023-05-10T10:39:38;4.65;;;1.60;;
43124;SDS011;49182;50.788;7.318;2023-05-10T10:42:04;3.15;;;1.38;;
43124;SDS011;49182;50.788;7.318;2023-05-10T10:44:35;5.78;;;1.88;;
43124;SDS011;49182;50.788;7.318;2023-05-10T10:49:31;6.05;;;1.88;;
43124;SDS011;49182;50.788;7.318;2023-05-10T10:52:15;5.10;;;2.10;;
43124;SDS011;49182;50.788;7.318;2023-05-10T10:54:51;5.40;;;2.58;;
43124;SDS011;49182;50.788;7.318;2023-05-10T10:57:19;11.38;;;3.15;;
43124;SDS011;49182;50.788;7.318;2023-05-10T10:59:46;10.32;;;3.80;;
43124;SDS011;49182;50.788;7.318;2023-05-10T11:02:32;6.80;;;4.00;;
43124;SDS011;49182;50.788;7.318;2023-05-10T11:04:59;9.20;;;4.00;;
43124;SDS011;49182;50.788;7.318;2023-05-10T11:07:28;7.18;;;3.50;;
43124;SDS011;49182;50.788;7.318;2023-05-10T11:09:54;9.50;;;4.57;;
43124;SDS011;49182;50.788;7.318;2023-05-10T11:12:21;10.20;;;4.53;;
43124;SDS011;49182;50.788;7.318;2023-05-10T11:14:49;9.80;;;4.82;;
43124;SDS011;49182;50.788;7.318;2023-05-10T11:17:22;9.60;;;4.95;;
43124;SDS011;49182;50.788;7.318;2023-05-10T11:20:06;13.85;;;5.28;;
43124;SDS011;49182;50.788;7.318;2023-05-10T11:22:46;12.43;;;4.82;;
43124;SDS011;49182;50.788;7.318;2023-05-10T11:25:15;10.60;;;4.88;;
43124;SDS011;49182;50.788;7.318;2023-05-10T11:27:42;9.30;;;4.47;;
43124;SDS011;49182;50.788;7.318;2023-05-10T11:30:09;13.75;;;6.53;;
43124;SDS011;49182;50.788;7.318;2023-05-10T11:32:37;10.10;;;4.82;;
43124;SDS011;49182;50.788;7.318;2023-05-10T11:35:06;12.15;;;5.25;;
43124;SDS011;49182;50.788;7.318;2023-05-10T11:37:33;8.38;;;4.65;;
43124;SDS011;49182;50.788;7.318;2023-05-10T11:40:01;11.18;;;4.85;;
43124;SDS011;49182;50.788;7.318;2023-05-10T11:42:28;9.63;;;4.97;;
43124;SDS011;49182;50.788;7.318;2023-05-10T11:44:55;8.23;;;4.70;;
43124;SDS011;49182;50.788;7.318;2023-05-10T11:47:22;10.55;;;4.85;;
43124;SDS011;49182;50.788;7.318;2023-05-10T11:49:49;10.23;;;5.57;;
43124;SDS011;49182;50.788;7.318;2023-05-10T11:52:15;12.35;;;5.22;;
43124;SDS011;49182;50.788;7.318;2023-05-10T11:54:45;12.50;;;6.20;;
43124;SDS011;49182;50.788;7.318;2023-05-10T11:57:19;9.48;;;5.25;;
43124;SDS011;49182;50.788;7.318;2023-05-10T11:59:46;10.00;;;5.28;;
43124;SDS011;49182;50.788;7.318;2023-05-10T12:02:12;12.73;;;5.25;;
43124;SDS011;49182;50.788;7.318;2023-05-10T12:04:40;9.90;;;4.95;;
43124;SDS011;49182;50.788;7.318;2023-05-10T12:07:07;9.52;;;4.82;;
43124;SDS011;49182;50.788;7.318;2023-05-10T12:09:34;9.50;;;4.05;;
43124;SDS011;49182;50.788;7.318;2023-05-10T12:12:09;7.72;;;4.30;;
43124;SDS011;49182;50.788;7.318;2023-05-10T12:14:37;7.50;;;3.92;;
43124;SDS011;49182;50.788;7.318;2023-05-10T12:17:04;8.45;;;4.13;;
43124;SDS011;49182;50.788;7.318;2023-05-10T12:19:36;6.85;;;3.60;;
43124;SDS011;49182;50.788;7.318;2023-05-10T12:22:04;5.28;;;3.17;;
43124;SDS011;49182;50.788;7.318;2023-05-10T12:24:33;6.05;;;2.97;;
43124;SDS011;49182;50.788;7.318;2023-05-10T12:27:04;7.30;;;3.42;;
43124;SDS011;49182;50.788;7.318;2023-05-10T12:29:31;5.43;;;3.03;;
43124;SDS011;49182;50.788;7.318;2023-05-10T12:31:59;9.07;;;2.47;;
43124;SDS011;49182;50.788;7.318;2023-05-10T12:34:26;7.32;;;3.80;;
43124;SDS011;49182;50.788;7.318;2023-05-10T12:36:56;6.55;;;2.75;;
43124;SDS011;49182;50.788;7.318;2023-05-10T12:39:23;5.30;;;2.58;;
43124;SDS011;49182;50.788;7.318;2023-05-10T12:41:50;6.35;;;3.60;;
43124;SDS011;49182;50.788;7.318;2023-05-10T12:44:16;6.18;;;2.60;;
43124;SDS011;49182;50.788;7.318;2023-05-10T12:46:43;6.72;;;2.92;;
43124;SDS011;49182;50.788;7.318;2023-05-10T12:49:11;4.65;;;2.65;;
43124;SDS011;49182;50.788;7.318;2023-05-10T12:51:38;5.40;;;2.42;;
43124;SDS011;49182;50.788;7.318;2023-05-10T12:54:04;6.55;;;2.85;;
43124;SDS011;49182;50.788;7.318;2023-05-10T12:56:31;4.80;;;2.40;;
43124;SDS011;49182;50.788;7.318;2023-05-10T12:58:58;4.60;;;2.35;;
43124;SDS011;49182;50.788;7.318;2023-05-10T13:01:24;4.38;;;2.30;;
43124;SDS011;49182;50.788;7.318;2023-05-10T13:03:51;4.50;;;2.45;;
43124;SDS011;49182;50.788;7.318;2023-05-10T13:06:19;3.47;;;1.92;;
43124;SDS011;49182;50.788;7.318;2023-05-10T13:08:45;5.60;;;2.25;;
43124;SDS011;49182;50.788;7.318;2023-05-10T13:11:12;4.20;;;2.30;;
43124;SDS011;49182;50.788;7.318;2023-05-10T13:13:38;4.38;;;1.90;;
43124;SDS011;49182;50.788;7.318;2023-05-10T13:16:05;4.28;;;2.13;;
43124;SDS011;49182;50.788;7.318;2023-05-10T13:18:32;4.32;;;2.20;;
43124;SDS011;49182;50.788;7.318;2023-05-10T13:20:59;4.95;;;1.85;;
43124;SDS011;49182;50.788;7.318;2023-05-10T13:23:27;4.07;;;1.52;;
43124;SDS011;49182;50.788;7.318;2023-05-10T13:25:53;3.38;;;1.70;;
43124;SDS011;49182;50.788;7.318;2023-05-10T13:28:20;4.53;;;1.73;;
43124;SDS011;49182;50.788;7.318;2023-05-10T13:30:46;3.03;;;1.63;;
43124;SDS011;49182;50.788;7.318;2023-05-10T13:33:13;4.97;;;2.45;;
43124;SDS011;49182;50.788;7.318;2023-05-10T13:35:39;3.63;;;1.88;;
43124;SDS011;49182;50.788;7.318;2023-05-10T13:38:06;3.40;;;1.60;;
43124;SDS011;49182;50.788;7.318;2023-05-10T13:40:34;4.40;;;2.00;;
43124;SDS011;49182;50.788;7.318;2023-05-10T13:43:01;5.15;;;2.10;;
43124;SDS011;49182;50.788;7.318;2023-05-10T13:45:27;3.08;;;1.45;;
43124;SDS011;49182;50.788;7.318;2023-05-10T13:47:54;6.75;;;2.08;;
43124;SDS011;49182;50.788;7.318;2023-05-10T13:50:20;4.47;;;1.95;;
43124;SDS011;49182;50.788;7.318;2023-05-10T13:52:47;3.45;;;1.40;;
43124;SDS011;49182;50.788;7.318;2023-05-10T13:55:13;3.08;;;1.42;;
43124;SDS011;49182;50.788;7.318;2023-05-10T13:57:42;3.75;;;1.63;;
43124;SDS011;49182;50.788;7.318;2023-05-10T14:00:09;4.15;;;1.80;;
43124;SDS011;49182;50.788;7.318;2023-05-10T14:02:36;2.40;;;1.20;;
43124;SDS011;49182;50.788;7.318;2023-05-10T14:05:03;2.92;;;1.33;;
43124;SDS011;49182;50.788;7.318;2023-05-10T14:07:30;2.97;;;1.55;;
43124;SDS011;49182;50.788;7.318;2023-05-10T14:09:57;3.42;;;1.30;;
43124;SDS011;49182;50.788;7.318;2023-05-10T14:12:23;5.43;;;1.77;;
43124;SDS011;49182;50.788;7.318;2023-05-10T14:14:51;2.42;;;1.45;;
43124;SDS011;49182;50.788;7.318;2023-05-10T14:17:18;3.85;;;1.50;;
43124;SDS011;49182;50.788;7.318;2023-05-10T14:19:44;3.28;;;1.70;;
43124;SDS011;49182;50.788;7.318;2023-05-10T14:22:11;4.45;;;1.75;;
43124;SDS011;49182;50.788;7.318;2023-05-10T14:24:37;5.00;;;1.80;;
43124;SDS011;49182;50.788;7.318;2023-05-10T14:27:04;4.72;;;1.50;;
43124;SDS011;49182;50.788;7.318;2023-05-10T14:29:31;3.80;;;1.70;;
43124;SDS011;49182;50.788;7.318;2023-05-10T14:31:59;3.70;;;1.55;;
43124;SDS011;49182;50.788;7.318;2023-05-10T14:34:25;3.30;;;1.67;;
43124;SDS011;49182;50.788;7.318;2023-05-10T14:36:52;3.75;;;1.63;;
43124;SDS011;49182;50.788;7.318;2023-05-10T14:39:18;2.83;;;1.52;;
43124;SDS011;49182;50.788;7.318;2023-05-10T14:41:45;3.20;;;1.60;;
43124;SDS011;49182;50.788;7.318;2023-05-10T14:44:11;6.50;;;1.52;;
43124;SDS011;49182;50.788;7.318;2023-05-10T14:46:38;3.10;;;1.45;;
43124;SDS011;49182;50.788;7.318;2023-05-10T14:49:06;2.88;;;1.30;;
43124;SDS011;49182;50.788;7.318;2023-05-10T14:51:33;2.97;;;1.30;;
43124;SDS011;49182;50.788;7.318;2023-05-10T14:53:59;2.58;;;1.20;;
43124;SDS011;49182;50.788;7.318;2023-05-10T14:56:26;3.13;;;1.17;;